Weather at Olare Orok Airfield

Public forecast

Using degrees Celsius for public forecast. Weather courtesy of forecast.io.

Closest aviation weather report (METAR) to Olare Orok Airfield

Closest report is Kisumu Airport, 80.6 nm (149.2 km) NNW.

2023/10/03 16:00 (retrieved 2 hours ago)

HKKI 031600Z 28006KT 9999 SCT026 27/17 Q1014

Closest aviation forecast (TAF) to Olare Orok Airfield

Closest forecast is Kisumu Airport, 80.6 nm (149.2 km) NNW.

2023/10/03 12:54 (retrieved 5 hours ago)

TAF HKKI 031100Z 0312/0418 23009KT 9999 FEW027CB SCT028 PROB40 TEMPO 0313/0317 VRB10KT -TSRA FEW023CB SCT024 BKN080 BECMG 0320/0323 12005K T NSW FEW021 BECMG 0408/0411 24010KT FEW026CB SCT027